Time,TemperatureF,DewpointF,PressureIn,WindDirection,WindDirectionDegrees,WindSpeedMPH,WindSpeedGustMPH,Humidity,HourlyPrecipIn,Conditions,Clouds,dailyrainin,SoftwareType,DateUTC
2013-04-26 00:01:00,39.2,33.9,30.27,North,0,0.0,0.0,81,0.00,,CLR,0.00,VWS V14.01,2013-04-26 04:01:00,
2013-04-26 00:27:00,39.2,33.9,30.27,North,0,0.0,0.0,81,0.00,,CLR,0.00,VWS V14.01,2013-04-26 04:27:00,
2013-04-26 00:52:00,39.2,33.9,30.27,North,0,0.0,0.0,81,0.00,,CLR,0.00,VWS V14.01,2013-04-26 04:52:00,
2013-04-26 00:56:00,39.2,33.9,30.28,North,0,0.0,0.0,81,0.00,,CLR,0.00,VWS V14.01,2013-04-26 04:56:00,
2013-04-26 00:57:00,39.2,33.9,30.27,North,0,0.0,0.0,81,0.00,,CLR,0.00,VWS V14.01,2013-04-26 04:57:00,
2013-04-26 01:02:00,39.2,33.9,30.28,North,0,0.0,0.0,81,0.00,,CLR,0.00,VWS V14.01,2013-04-26 05:02:00,
2013-04-26 01:12:00,39.2,33.9,30.28,North,0,0.0,0.0,81,0.00,,CLR,0.00,VWS V14.01,2013-04-26 05:12:00,
2013-04-26 01:40:00,39.2,33.9,30.28,North,0,0.0,0.0,81,0.00,,CLR,0.00,VWS V14.01,2013-04-26 05:40:00,
2013-04-26 01:50:00,39.2,33.9,30.28,North,0,0.0,0.0,81,0.00,,CLR,0.00,VWS V14.01,2013-04-26 05:50:00,
2013-04-26 01:55:00,39.2,33.9,30.28,North,0,0.0,0.0,81,0.00,,CLR,0.00,VWS V14.01,2013-04-26 05:55:00,
2013-04-26 01:56:00,37.4,33.9,30.28,NNE,30,3.0,3.0,87,0.00,,CLR,0.00,VWS V14.01,2013-04-26 05:56:00,
2013-04-26 02:00:00,37.4,33.9,30.28,NNE,30,3.0,3.0,87,0.00,,CLR,0.00,VWS V14.01,2013-04-26 06:00:00,
2013-04-26 02:05:00,37.4,33.9,30.28,NNE,30,3.0,3.0,87,0.00,,CLR,0.00,VWS V14.01,2013-04-26 06:05:00,
2013-04-26 02:17:00,37.4,33.9,30.28,NNE,30,3.0,3.0,87,0.00,,CLR,0.00,VWS V14.01,2013-04-26 06:17:00,
2013-04-26 02:22:00,37.4,33.9,30.28,NNE,30,3.0,3.0,87,0.00,,CLR,0.00,VWS V14.01,2013-04-26 06:22:00,
2013-04-26 02:28:00,37.4,33.9,30.28,NNE,30,3.0,3.0,87,0.00,,CLR,0.00,VWS V14.01,2013-04-26 06:28:00,
2013-04-26 02:44:00,37.4,33.9,30.28,NNE,30,3.0,3.0,87,0.00,,CLR,0.00,VWS V14.01,2013-04-26 06:44:00,
2013-04-26 02:51:00,37.4,33.9,30.28,NNE,30,3.0,3.0,87,0.00,,CLR,0.00,VWS V14.01,2013-04-26 06:51:00,
2013-04-26 02:56:00,37.4,33.9,30.28,NNE,30,3.0,3.0,87,0.00,,CLR,0.00,VWS V14.01,2013-04-26 06:56:00,
2013-04-26 03:01:00,37.4,33.9,30.28,NE,40,4.0,4.0,87,0.00,,CLR,0.00,VWS V14.01,2013-04-26 07:01:00,
2013-04-26 03:16:00,37.4,33.9,30.28,NE,40,4.0,4.0,87,0.00,,CLR,0.00,VWS V14.01,2013-04-26 07:16:00,
2013-04-26 03:29:00,37.4,33.9,30.28,NE,40,4.0,4.0,87,0.00,,CLR,0.00,VWS V14.01,2013-04-26 07:29:00,
2013-04-26 03:36:00,37.4,33.9,30.28,NE,40,4.0,4.0,87,0.00,,CLR,0.00,VWS V14.01,2013-04-26 07:36:00,
2013-04-26 03:41:00,37.4,33.9,30.28,NE,40,4.0,4.0,87,0.00,,CLR,0.00,VWS V14.01,2013-04-26 07:41:00,
2013-04-26 03:51:00,37.4,33.9,30.28,NE,40,4.0,4.0,87,0.00,,CLR,0.00,VWS V14.01,2013-04-26 07:51:00,
2013-04-26 03:56:00,37.4,33.9,30.28,NE,40,4.0,4.0,87,0.00,,CLR,0.00,VWS V14.01,2013-04-26 07:56:00,
2013-04-26 04:01:00,35.6,30.0,30.29,North,10,3.0,3.0,80,0.00,,CLR,0.00,VWS V14.01,2013-04-26 08:01:00,
2013-04-26 04:24:00,35.6,30.0,30.29,North,10,3.0,3.0,80,0.00,,CLR,0.00,VWS V14.01,2013-04-26 08:24:00,
2013-04-26 04:41:00,35.6,30.0,30.29,North,10,3.0,3.0,80,0.00,,CLR,0.00,VWS V14.01,2013-04-26 08:41:00,
2013-04-26 04:52:00,35.6,30.0,30.29,North,10,3.0,3.0,80,0.00,,CLR,0.00,VWS V14.01,2013-04-26 08:52:00,
2013-04-26 04:56:00,37.4,30.2,30.31,NNE,20,4.0,4.0,75,0.00,,CLR,0.00,VWS V14.01,2013-04-26 08:56:00,
2013-04-26 04:57:00,35.6,30.0,30.29,North,10,3.0,3.0,80,0.00,,CLR,0.00,VWS V14.01,2013-04-26 08:57:00,
2013-04-26 05:02:00,37.4,30.2,30.31,NNE,20,4.0,4.0,75,0.00,,CLR,0.00,VWS V14.01,2013-04-26 09:02:00,
2013-04-26 05:11:00,37.4,30.2,30.31,NNE,20,4.0,4.0,75,0.00,,CLR,0.00,VWS V14.01,2013-04-26 09:11:00,
2013-04-26 05:26:00,37.4,30.2,30.31,NNE,20,4.0,4.0,75,0.00,,CLR,0.00,VWS V14.01,2013-04-26 09:26:00,
2013-04-26 05:37:00,37.4,30.2,30.31,NNE,20,4.0,4.0,75,0.00,,CLR,0.00,VWS V14.01,2013-04-26 09:37:00,
2013-04-26 05:49:00,37.4,30.2,30.31,NNE,20,4.0,4.0,75,0.00,,CLR,0.00,VWS V14.01,2013-04-26 09:49:00,
2013-04-26 05:54:00,37.4,30.2,30.31,NNE,20,4.0,4.0,75,0.00,,CLR,0.00,VWS V14.01,2013-04-26 09:54:00,
2013-04-26 05:56:00,37.4,30.2,30.33,NNE,30,3.0,3.0,75,0.00,,CLR,0.00,VWS V14.01,2013-04-26 09:56:00,
2013-04-26 05:59:00,37.4,30.2,30.31,NNE,20,4.0,4.0,75,0.00,,CLR,0.00,VWS V14.01,2013-04-26 09:59:00,
2013-04-26 06:04:00,37.4,30.2,30.33,NNE,30,3.0,3.0,75,0.00,,CLR,0.00,VWS V14.01,2013-04-26 10:04:00,
2013-04-26 06:11:00,37.4,30.2,30.33,NNE,30,3.0,3.0,75,0.00,,CLR,0.00,VWS V14.01,2013-04-26 10:11:00,
2013-04-26 06:18:00,37.4,30.2,30.33,NNE,30,3.0,3.0,75,0.00,,CLR,0.00,VWS V14.01,2013-04-26 10:18:00,
2013-04-26 06:30:00,37.4,30.2,30.33,NNE,30,3.0,3.0,75,0.00,,CLR,0.00,VWS V14.01,2013-04-26 10:30:00,
2013-04-26 06:36:00,37.4,30.2,30.33,NNE,30,3.0,3.0,75,0.00,,CLR,0.00,VWS V14.01,2013-04-26 10:36:00,
2013-04-26 06:47:00,37.4,30.2,30.33,NNE,30,3.0,3.0,75,0.00,,CLR,0.00,VWS V14.01,2013-04-26 10:47:00,
2013-04-26 06:52:00,37.4,30.2,30.33,NNE,30,3.0,3.0,75,0.00,,CLR,0.00,VWS V14.01,2013-04-26 10:52:00,
2013-04-26 06:56:00,39.2,30.2,30.34,North,360,4.0,4.0,70,0.00,,CLR,0.00,VWS V14.01,2013-04-26 10:56:00,
2013-04-26 06:57:00,37.4,30.2,30.33,NNE,30,3.0,3.0,75,0.00,,CLR,0.00,VWS V14.01,2013-04-26 10:57:00,
2013-04-26 07:02:00,39.2,30.2,30.34,North,360,4.0,4.0,70,0.00,,CLR,0.00,VWS V14.01,2013-04-26 11:02:00,
2013-04-26 07:19:00,39.2,30.2,30.34,North,360,4.0,4.0,70,0.00,,CLR,0.00,VWS V14.01,2013-04-26 11:19:00,
2013-04-26 07:32:00,39.2,30.2,30.34,North,360,4.0,4.0,70,0.00,,CLR,0.00,VWS V14.01,2013-04-26 11:32:00,
2013-04-26 07:43:00,39.2,30.2,30.34,North,360,4.0,4.0,70,0.00,,CLR,0.00,VWS V14.01,2013-04-26 11:43:00,
2013-04-26 07:49:00,39.2,30.2,30.34,North,360,4.0,4.0,70,0.00,,CLR,0.00,VWS V14.01,2013-04-26 11:49:00,
2013-04-26 07:54:00,39.2,30.2,30.34,North,360,4.0,4.0,70,0.00,,CLR,0.00,VWS V14.01,2013-04-26 11:54:00,
2013-04-26 07:56:00,48.2,31.9,30.35,NE,40,5.0,5.0,53,0.00,,,0.00,VWS V14.01,2013-04-26 11:56:00,
2013-04-26 07:59:00,39.2,30.2,30.34,North,360,4.0,4.0,70,0.00,,CLR,0.00,VWS V14.01,2013-04-26 11:59:00,
2013-04-26 08:04:00,48.2,31.9,30.35,NE,40,5.0,5.0,53,0.00,,,0.00,VWS V14.01,2013-04-26 12:04:00,
2013-04-26 08:12:00,48.2,31.9,30.35,NE,40,5.0,5.0,53,0.00,,,0.00,VWS V14.01,2013-04-26 12:12:00,
2013-04-26 08:52:00,48.2,31.9,30.35,NE,40,5.0,5.0,53,0.00,,,0.00,VWS V14.01,2013-04-26 12:52:00,
2013-04-26 08:56:00,53.6,30.5,30.36,East,100,3.0,3.0,41,0.00,,CLR,0.00,VWS V14.01,2013-04-26 12:56:00,
2013-04-26 08:57:00,48.2,31.9,30.35,NE,40,5.0,5.0,53,0.00,,,0.00,VWS V14.01,2013-04-26 12:57:00,
2013-04-26 09:02:00,53.6,30.5,30.36,East,100,3.0,3.0,41,0.00,,CLR,0.00,VWS V14.01,2013-04-26 13:02:00,
2013-04-26 09:23:00,53.6,30.5,30.36,East,100,3.0,3.0,41,0.00,,CLR,0.00,VWS V14.01,2013-04-26 13:23:00,
2013-04-26 09:34:00,53.6,30.5,30.36,East,100,3.0,3.0,41,0.00,,CLR,0.00,VWS V14.01,2013-04-26 13:34:00,
2013-04-26 09:51:00,53.6,30.5,30.36,East,100,3.0,3.0,41,0.00,,CLR,0.00,VWS V14.01,2013-04-26 13:51:00,
2013-04-26 09:56:00,53.6,30.5,30.36,East,100,3.0,3.0,41,0.00,,CLR,0.00,VWS V14.01,2013-04-26 13:56:00,
2013-04-26 10:01:00,55.4,32.1,30.37,East,100,11.0,11.0,41,0.00,,CLR,0.00,VWS V14.01,2013-04-26 14:01:00,
2013-04-26 10:18:00,55.4,32.1,30.37,East,100,11.0,11.0,41,0.00,,CLR,0.00,VWS V14.01,2013-04-26 14:18:00,
2013-04-26 10:27:00,55.4,32.1,30.37,East,100,11.0,11.0,41,0.00,,CLR,0.00,VWS V14.01,2013-04-26 14:27:00,
2013-04-26 10:41:00,55.4,32.1,30.37,East,100,11.0,11.0,41,0.00,,CLR,0.00,VWS V14.01,2013-04-26 14:41:00,
2013-04-26 10:51:00,55.4,32.1,30.37,East,100,11.0,11.0,41,0.00,,CLR,0.00,VWS V14.01,2013-04-26 14:51:00,
2013-04-26 10:56:00,55.4,32.1,30.37,East,100,11.0,11.0,41,0.00,,CLR,0.00,VWS V14.01,2013-04-26 14:56:00,
2013-04-26 11:01:00,57.2,33.7,30.38,ESE,120,9.0,9.0,41,0.00,,CLR,0.00,VWS V14.01,2013-04-26 15:01:00,
2013-04-26 11:07:00,57.2,33.7,30.38,ESE,120,9.0,9.0,41,0.00,,CLR,0.00,VWS V14.01,2013-04-26 15:07:00,
2013-04-26 11:18:00,57.2,33.7,30.38,ESE,120,9.0,9.0,41,0.00,,CLR,0.00,VWS V14.01,2013-04-26 15:18:00,
2013-04-26 11:24:00,57.2,33.7,30.38,ESE,120,9.0,9.0,41,0.00,,CLR,0.00,VWS V14.01,2013-04-26 15:24:00,
2013-04-26 11:39:00,57.2,33.7,30.38,ESE,120,9.0,9.0,41,0.00,,CLR,0.00,VWS V14.01,2013-04-26 15:39:00,
2013-04-26 11:46:00,57.2,33.7,30.38,ESE,120,9.0,9.0,41,0.00,,CLR,0.00,VWS V14.01,2013-04-26 15:46:00,
2013-04-26 11:52:00,57.2,33.7,30.38,ESE,120,9.0,9.0,41,0.00,,CLR,0.00,VWS V14.01,2013-04-26 15:52:00,
2013-04-26 11:56:00,55.4,37.6,30.37,ESE,120,10.0,10.0,51,0.00,,CLR,0.00,VWS V14.01,2013-04-26 15:56:00,
2013-04-26 11:57:00,57.2,33.7,30.38,ESE,120,9.0,9.0,41,0.00,,CLR,0.00,VWS V14.01,2013-04-26 15:57:00,
2013-04-26 12:02:00,55.4,37.6,30.37,ESE,120,10.0,10.0,51,0.00,,CLR,0.00,VWS V14.01,2013-04-26 16:02:00,
2013-04-26 12:07:00,55.4,37.6,30.37,ESE,120,10.0,10.0,51,0.00,,CLR,0.00,VWS V14.01,2013-04-26 16:07:00,
2013-04-26 12:13:00,55.4,37.6,30.37,ESE,120,10.0,10.0,51,0.00,,CLR,0.00,VWS V14.01,2013-04-26 16:13:00,
2013-04-26 12:25:00,55.4,37.6,30.37,ESE,120,10.0,10.0,51,0.00,,CLR,0.00,VWS V14.01,2013-04-26 16:25:00,
2013-04-26 12:40:00,55.4,37.6,30.37,ESE,120,10.0,10.0,51,0.00,,CLR,0.00,VWS V14.01,2013-04-26 16:40:00,
2013-04-26 12:52:00,55.4,37.6,30.37,ESE,120,10.0,10.0,51,0.00,,CLR,0.00,VWS V14.01,2013-04-26 16:52:00,
2013-04-26 12:56:00,55.4,39.0,30.37,SE,130,11.0,11.0,54,0.00,,CLR,0.00,VWS V14.01,2013-04-26 16:56:00,
2013-04-26 12:57:00,55.4,37.6,30.37,ESE,120,10.0,10.0,51,0.00,,CLR,0.00,VWS V14.01,2013-04-26 16:57:00,
2013-04-26 13:02:00,55.4,39.0,30.37,SE,130,11.0,11.0,54,0.00,,CLR,0.00,VWS V14.01,2013-04-26 17:02:00,
2013-04-26 13:17:00,55.4,39.0,30.37,SE,130,11.0,11.0,54,0.00,,CLR,0.00,VWS V14.01,2013-04-26 17:17:00,
2013-04-26 13:22:00,55.4,39.0,30.37,SE,130,11.0,11.0,54,0.00,,CLR,0.00,VWS V14.01,2013-04-26 17:22:00,
2013-04-26 13:33:00,55.4,39.0,30.37,SE,130,11.0,11.0,54,0.00,,CLR,0.00,VWS V14.01,2013-04-26 17:33:00,
2013-04-26 13:51:00,55.4,39.0,30.37,SE,130,11.0,11.0,54,0.00,,CLR,0.00,VWS V14.01,2013-04-26 17:51:00,
2013-04-26 13:56:00,55.4,39.0,30.37,SE,130,11.0,11.0,54,0.00,,CLR,0.00,VWS V14.01,2013-04-26 17:56:00,
2013-04-26 14:01:00,57.2,39.2,30.36,SSE,150,10.0,10.0,51,0.00,,CLR,0.00,VWS V14.01,2013-04-26 18:01:00,
2013-04-26 14:19:00,57.2,39.2,30.36,SSE,150,10.0,10.0,51,0.00,,CLR,0.00,VWS V14.01,2013-04-26 18:19:00,
2013-04-26 14:29:00,57.2,39.2,30.36,SSE,150,10.0,10.0,51,0.00,,CLR,0.00,VWS V14.01,2013-04-26 18:29:00,
2013-04-26 14:38:00,57.2,39.2,30.36,SSE,150,10.0,10.0,51,0.00,,CLR,0.00,VWS V14.01,2013-04-26 18:38:00,
2013-04-26 14:44:00,57.2,39.2,30.36,SSE,150,10.0,10.0,51,0.00,,CLR,0.00,VWS V14.01,2013-04-26 18:44:00,
2013-04-26 14:50:00,57.2,39.2,30.36,SSE,150,10.0,10.0,51,0.00,,CLR,0.00,VWS V14.01,2013-04-26 18:50:00,
2013-04-26 14:55:00,57.2,39.2,30.36,SSE,150,10.0,10.0,51,0.00,,CLR,0.00,VWS V14.01,2013-04-26 18:55:00,
2013-04-26 14:56:00,57.2,39.2,30.35,SE,140,9.0,9.0,51,0.00,,CLR,0.00,VWS V14.01,2013-04-26 18:56:00,
2013-04-26 15:00:00,57.2,39.2,30.35,SE,140,9.0,10.0,51,0.00,,CLR,0.00,VWS V14.01,2013-04-26 19:00:00,
2013-04-26 15:05:00,57.2,39.2,30.35,SE,140,9.0,9.0,51,0.00,,CLR,0.00,VWS V14.01,2013-04-26 19:05:00,
2013-04-26 15:11:00,57.2,39.2,30.35,SE,140,9.0,9.0,51,0.00,,CLR,0.00,VWS V14.01,2013-04-26 19:11:00,
2013-04-26 15:42:00,57.2,39.2,30.35,SE,140,9.0,9.0,51,0.00,,CLR,0.00,VWS V14.01,2013-04-26 19:42:00,
2013-04-26 15:52:00,57.2,39.2,30.35,SE,140,9.0,9.0,51,0.00,,CLR,0.00,VWS V14.01,2013-04-26 19:52:00,
2013-04-26 15:56:00,53.6,42.9,30.35,SSE,160,9.0,9.0,67,0.00,,CLR,0.00,VWS V14.01,2013-04-26 19:56:00,
2013-04-26 15:57:00,57.2,39.2,30.35,SE,140,9.0,9.0,51,0.00,,CLR,0.00,VWS V14.01,2013-04-26 19:57:00,
2013-04-26 16:02:00,53.6,42.9,30.35,SSE,160,9.0,9.0,67,0.00,,CLR,0.00,VWS V14.01,2013-04-26 20:02:00,
2013-04-26 16:08:00,53.6,42.9,30.35,SSE,160,9.0,9.0,67,0.00,,CLR,0.00,VWS V14.01,2013-04-26 20:08:00,
2013-04-26 16:13:00,53.6,42.9,30.35,SSE,160,9.0,9.0,67,0.00,,CLR,0.00,VWS V14.01,2013-04-26 20:13:00,
2013-04-26 16:35:00,53.6,42.9,30.35,SSE,160,9.0,9.0,67,0.00,,CLR,0.00,VWS V14.01,2013-04-26 20:35:00,
2013-04-26 16:47:00,53.6,42.9,30.35,SSE,160,9.0,9.0,67,0.00,,CLR,0.00,VWS V14.01,2013-04-26 20:47:00,
2013-04-26 16:52:00,53.6,42.9,30.35,SSE,160,9.0,9.0,67,0.00,,CLR,0.00,VWS V14.01,2013-04-26 20:52:00,
2013-04-26 16:56:00,53.6,39.2,30.35,South,170,6.0,6.0,58,0.00,,CLR,0.00,VWS V14.01,2013-04-26 20:56:00,
2013-04-26 16:57:00,53.6,42.9,30.35,SSE,160,9.0,9.0,67,0.00,,CLR,0.00,VWS V14.01,2013-04-26 20:57:00,
2013-04-26 17:02:00,53.6,39.2,30.35,South,170,6.0,6.0,58,0.00,,CLR,0.00,VWS V14.01,2013-04-26 21:02:00,
2013-04-26 17:18:00,53.6,39.2,30.35,South,170,6.0,6.0,58,0.00,,CLR,0.00,VWS V14.01,2013-04-26 21:18:00,
2013-04-26 17:24:00,53.6,39.2,30.35,South,170,6.0,6.0,58,0.00,,CLR,0.00,VWS V14.01,2013-04-26 21:24:00,
2013-04-26 17:52:00,53.6,39.2,30.35,South,170,6.0,6.0,58,0.00,,CLR,0.00,VWS V14.01,2013-04-26 21:52:00,
2013-04-26 17:56:00,53.6,37.4,30.35,SE,140,5.0,5.0,54,0.00,,FEW090,0.00,VWS V14.01,2013-04-26 21:56:00,
2013-04-26 17:57:00,53.6,39.2,30.35,South,170,6.0,6.0,58,0.00,,CLR,0.00,VWS V14.01,2013-04-26 21:57:00,
2013-04-26 18:02:00,53.6,37.4,30.35,SE,140,5.0,5.0,54,0.00,,FEW090,0.00,VWS V14.01,2013-04-26 22:02:00,
2013-04-26 18:29:00,53.6,37.4,30.35,SE,140,5.0,5.0,54,0.00,,FEW090,0.00,VWS V14.01,2013-04-26 22:29:00,
2013-04-26 18:51:00,53.6,37.4,30.35,SE,140,5.0,5.0,54,0.00,,FEW090,0.00,VWS V14.01,2013-04-26 22:51:00,
2013-04-26 18:56:00,53.6,37.4,30.35,SE,140,5.0,5.0,54,0.00,,FEW090,0.00,VWS V14.01,2013-04-26 22:56:00,
2013-04-26 19:01:00,51.8,39.2,30.36,ESE,120,4.0,4.0,62,0.00,,SCT090,0.00,VWS V14.01,2013-04-26 23:01:00,
2013-04-26 19:17:00,51.8,39.2,30.36,ESE,120,4.0,4.0,62,0.00,,SCT090,0.00,VWS V14.01,2013-04-26 23:17:00,
2013-04-26 19:22:00,51.8,39.2,30.36,ESE,120,4.0,4.0,62,0.00,,SCT090,0.00,VWS V14.01,2013-04-26 23:22:00,
2013-04-26 19:33:00,51.8,39.2,30.36,ESE,120,4.0,4.0,62,0.00,,SCT090,0.00,VWS V14.01,2013-04-26 23:33:00,
2013-04-26 19:43:00,51.8,39.2,30.36,ESE,120,4.0,4.0,62,0.00,,SCT090,0.00,VWS V14.01,2013-04-26 23:43:00,
2013-04-26 19:50:00,51.8,39.2,30.36,ESE,120,4.0,4.0,62,0.00,,SCT090,0.00,VWS V14.01,2013-04-26 23:50:00,
2013-04-26 19:56:00,50.0,39.1,30.37,ESE,110,5.0,5.0,66,0.00,,BKN095,0.00,VWS V14.01,2013-04-26 23:56:00,
2013-04-26 20:05:00,50.0,39.1,30.37,ESE,110,5.0,5.0,66,0.00,,BKN095,0.00,VWS V14.01,2013-04-27 00:05:00,
2013-04-26 20:38:00,50.0,39.1,30.37,ESE,110,5.0,5.0,66,0.00,,BKN095,0.00,VWS V14.01,2013-04-27 00:38:00,
2013-04-26 20:46:00,50.0,39.1,30.37,ESE,110,5.0,5.0,66,0.00,,BKN095,0.00,VWS V14.01,2013-04-27 00:46:00,
2013-04-26 20:51:00,50.0,39.1,30.37,ESE,110,5.0,5.0,66,0.00,,BKN095,0.00,VWS V14.01,2013-04-27 00:51:00,
2013-04-26 20:56:00,50.0,39.1,30.37,ESE,110,5.0,5.0,66,0.00,,BKN095,0.00,VWS V14.01,2013-04-27 00:56:00,
2013-04-26 21:01:00,48.2,42.7,30.38,East,100,6.0,6.0,81,0.00,,FEW080,0.00,VWS V14.01,2013-04-27 01:01:00,
2013-04-26 21:13:00,48.2,42.7,30.38,East,100,6.0,6.0,81,0.00,,FEW080,0.00,VWS V14.01,2013-04-27 01:13:00,
2013-04-26 21:18:00,48.2,42.7,30.38,East,100,6.0,6.0,81,0.00,,FEW080,0.00,VWS V14.01,2013-04-27 01:18:00,
2013-04-26 21:29:00,48.2,42.7,30.38,East,100,6.0,6.0,81,0.00,,FEW080,0.00,VWS V14.01,2013-04-27 01:29:00,
2013-04-26 21:48:00,48.2,42.7,30.38,East,100,6.0,6.0,81,0.00,,FEW080,0.00,VWS V14.01,2013-04-27 01:48:00,
2013-04-26 21:53:00,48.2,42.7,30.38,East,100,6.0,6.0,81,0.00,,FEW080,0.00,VWS V14.01,2013-04-27 01:53:00,
2013-04-26 21:56:00,48.2,42.7,30.40,East,90,6.0,6.0,81,0.00,,CLR,0.00,VWS V14.01,2013-04-27 01:56:00,
2013-04-26 21:58:00,48.2,42.7,30.38,East,100,6.0,6.0,81,0.00,,FEW080,0.00,VWS V14.01,2013-04-27 01:58:00,
2013-04-26 22:03:00,48.2,42.7,30.40,East,90,6.0,6.0,81,0.00,,CLR,0.00,VWS V14.01,2013-04-27 02:03:00,
2013-04-26 22:12:00,48.2,42.7,30.40,East,90,6.0,6.0,81,0.00,,CLR,0.00,VWS V14.01,2013-04-27 02:12:00,
2013-04-26 22:21:00,48.2,42.7,30.40,East,90,6.0,6.0,81,0.00,,CLR,0.00,VWS V14.01,2013-04-27 02:21:00,
2013-04-26 22:40:00,48.2,42.7,30.40,East,90,6.0,6.0,81,0.00,,CLR,0.00,VWS V14.01,2013-04-27 02:40:00,
2013-04-26 22:52:00,48.2,42.7,30.40,East,90,6.0,6.0,81,0.00,,CLR,0.00,VWS V14.01,2013-04-27 02:52:00,
2013-04-26 22:56:00,46.4,44.5,30.40,East,100,8.0,8.0,93,0.00,,CLR,0.00,VWS V14.01,2013-04-27 02:56:00,
2013-04-26 22:57:00,48.2,42.7,30.40,East,90,6.0,6.0,81,0.00,,CLR,0.00,VWS V14.01,2013-04-27 02:57:00,
2013-04-26 23:02:00,46.4,44.5,30.40,East,100,8.0,8.0,93,0.00,,CLR,0.00,VWS V14.01,2013-04-27 03:02:00,
2013-04-26 23:10:00,46.4,44.5,30.40,East,100,8.0,8.0,93,0.00,,CLR,0.00,VWS V14.01,2013-04-27 03:10:00,
2013-04-26 23:24:00,46.4,44.5,30.40,East,100,8.0,8.0,93,0.00,,CLR,0.00,VWS V14.01,2013-04-27 03:24:00,
2013-04-26 23:33:00,46.4,44.5,30.40,East,100,8.0,8.0,93,0.00,,CLR,0.00,VWS V14.01,2013-04-27 03:33:00,
2013-04-26 23:40:00,46.4,44.5,30.40,East,100,8.0,8.0,93,0.00,,CLR,0.00,VWS V14.01,2013-04-27 03:40:00,
2013-04-26 23:51:00,46.4,44.5,30.40,East,100,8.0,8.0,93,0.00,,CLR,0.00,VWS V14.01,2013-04-27 03:51:00,
2013-04-26 23:56:00,46.4,44.5,30.40,East,100,8.0,8.0,93,0.00,,CLR,0.00,VWS V14.01,2013-04-27 03:56:00,